sensor_id;sensor_type;location;lat;lon;timestamp;P1;durP1;ratioP1;P2;durP2;ratioP2
26478;SDS011;14163;-26.142;27.992;2022-11-20T02:07:32;8.30;;;5.03;;
26478;SDS011;14163;-26.142;27.992;2022-11-20T02:10:01;8.80;;;5.00;;
26478;SDS011;14163;-26.142;27.992;2022-11-20T02:12:31;13.10;;;5.70;;
26478;SDS011;14163;-26.142;27.992;2022-11-20T02:15:17;6.80;;;5.13;;
26478;SDS011;14163;-26.142;27.992;2022-11-20T02:17:46;11.73;;;6.33;;
26478;SDS011;14163;-26.142;27.992;2022-11-20T02:20:17;8.33;;;6.23;;
26478;SDS011;14163;-26.142;27.992;2022-11-20T02:22:47;11.70;;;6.33;;
26478;SDS011;14163;-26.142;27.992;2022-11-20T02:25:24;11.43;;;6.73;;
26478;SDS011;14163;-26.142;27.992;2022-11-20T02:27:55;8.37;;;5.70;;
26478;SDS011;14163;-26.142;27.992;2022-11-20T02:30:25;10.07;;;6.30;;
26478;SDS011;14163;-26.142;27.992;2022-11-20T02:32:54;10.93;;;6.20;;
26478;SDS011;14163;-26.142;27.992;2022-11-20T02:35:39;10.50;;;6.70;;
26478;SDS011;14163;-26.142;27.992;2022-11-20T02:38:11;9.63;;;5.67;;
26478;SDS011;14163;-26.142;27.992;2022-11-20T02:40:42;15.63;;;5.60;;
26478;SDS011;14163;-26.142;27.992;2022-11-20T02:43:11;12.40;;;5.30;;
26478;SDS011;14163;-26.142;27.992;2022-11-20T02:45:40;9.03;;;5.27;;
26478;SDS011;14163;-26.142;27.992;2022-11-20T02:48:09;9.40;;;5.87;;
26478;SDS011;14163;-26.142;27.992;2022-11-20T02:50:39;14.80;;;5.90;;
26478;SDS011;14163;-26.142;27.992;2022-11-20T02:53:08;9.13;;;4.90;;
26478;SDS011;14163;-26.142;27.992;2022-11-20T02:55:37;16.73;;;6.20;;
26478;SDS011;14163;-26.142;27.992;2022-11-20T02:58:08;12.53;;;6.17;;
26478;SDS011;14163;-26.142;27.992;2022-11-20T03:00:37;10.80;;;6.77;;
26478;SDS011;14163;-26.142;27.992;2022-11-20T03:03:07;10.70;;;5.93;;
26478;SDS011;14163;-26.142;27.992;2022-11-20T03:05:36;11.33;;;6.60;;
26478;SDS011;14163;-26.142;27.992;2022-11-20T03:08:05;9.07;;;5.70;;
26478;SDS011;14163;-26.142;27.992;2022-11-20T03:10:34;11.70;;;6.57;;
26478;SDS011;14163;-26.142;27.992;2022-11-20T03:13:03;11.67;;;6.80;;
26478;SDS011;14163;-26.142;27.992;2022-11-20T03:15:35;11.53;;;5.83;;
26478;SDS011;14163;-26.142;27.992;2022-11-20T03:18:07;11.23;;;6.77;;
26478;SDS011;14163;-26.142;27.992;2022-11-20T03:20:36;29.83;;;15.13;;
26478;SDS011;14163;-26.142;27.992;2022-11-20T03:23:05;28.47;;;17.83;;
26478;SDS011;14163;-26.142;27.992;2022-11-20T03:25:34;29.00;;;16.30;;
26478;SDS011;14163;-26.142;27.992;2022-11-20T03:28:03;21.27;;;15.27;;
26478;SDS011;14163;-26.142;27.992;2022-11-20T03:30:39;21.50;;;14.30;;
26478;SDS011;14163;-26.142;27.992;2022-11-20T03:33:08;21.37;;;13.67;;
26478;SDS011;14163;-26.142;27.992;2022-11-20T03:35:38;17.60;;;11.87;;
26478;SDS011;14163;-26.142;27.992;2022-11-20T03:38:07;16.30;;;12.03;;
26478;SDS011;14163;-26.142;27.992;2022-11-20T03:40:36;17.80;;;10.57;;
26478;SDS011;14163;-26.142;27.992;2022-11-20T03:43:05;20.30;;;10.93;;
26478;SDS011;14163;-26.142;27.992;2022-11-20T03:45:34;19.00;;;9.70;;
26478;SDS011;14163;-26.142;27.992;2022-11-20T03:48:06;15.90;;;9.20;;
26478;SDS011;14163;-26.142;27.992;2022-11-20T03:50:35;13.30;;;8.97;;
26478;SDS011;14163;-26.142;27.992;2022-11-20T03:53:04;14.10;;;8.90;;
26478;SDS011;14163;-26.142;27.992;2022-11-20T03:55:33;15.63;;;8.50;;
26478;SDS011;14163;-26.142;27.992;2022-11-20T03:58:02;10.13;;;7.80;;
26478;SDS011;14163;-26.142;27.992;2022-11-20T04:00:32;10.87;;;7.93;;
26478;SDS011;14163;-26.142;27.992;2022-11-20T04:03:01;15.20;;;8.03;;
26478;SDS011;14163;-26.142;27.992;2022-11-20T04:05:32;14.40;;;9.00;;
26478;SDS011;14163;-26.142;27.992;2022-11-20T04:08:01;12.10;;;8.80;;
26478;SDS011;14163;-26.142;27.992;2022-11-20T04:10:30;16.30;;;8.83;;
26478;SDS011;14163;-26.142;27.992;2022-11-20T04:13:00;8.97;;;7.63;;
26478;SDS011;14163;-26.142;27.992;2022-11-20T04:15:29;9.97;;;7.53;;
26478;SDS011;14163;-26.142;27.992;2022-11-20T04:17:58;7.13;;;6.43;;
26478;SDS011;14163;-26.142;27.992;2022-11-20T04:20:27;9.10;;;6.20;;
26478;SDS011;14163;-26.142;27.992;2022-11-20T04:22:58;7.77;;;6.63;;
26478;SDS011;14163;-26.142;27.992;2022-11-20T04:25:27;6.87;;;6.20;;
26478;SDS011;14163;-26.142;27.992;2022-11-20T04:27:57;5.70;;;5.07;;
26478;SDS011;14163;-26.142;27.992;2022-11-20T04:30:26;5.90;;;4.63;;
26478;SDS011;14163;-26.142;27.992;2022-11-20T04:32:55;6.37;;;4.50;;
26478;SDS011;14163;-26.142;27.992;2022-11-20T04:35:24;8.13;;;3.47;;
26478;SDS011;14163;-26.142;27.992;2022-11-20T04:37:53;5.10;;;3.60;;
26478;SDS011;14163;-26.142;27.992;2022-11-20T04:40:24;5.27;;;4.60;;
26478;SDS011;14163;-26.142;27.992;2022-11-20T04:42:53;4.97;;;4.47;;
26478;SDS011;14163;-26.142;27.992;2022-11-20T04:45:23;5.07;;;4.57;;
26478;SDS011;14163;-26.142;27.992;2022-11-20T04:47:52;3.90;;;3.50;;
26478;SDS011;14163;-26.142;27.992;2022-11-20T04:50:21;3.93;;;3.60;;
26478;SDS011;14163;-26.142;27.992;2022-11-20T04:52:50;3.23;;;2.90;;
26478;SDS011;14163;-26.142;27.992;2022-11-20T04:55:19;5.10;;;2.90;;
26478;SDS011;14163;-26.142;27.992;2022-11-20T04:57:51;3.20;;;3.00;;
26478;SDS011;14163;-26.142;27.992;2022-11-20T05:00:20;4.40;;;4.00;;
26478;SDS011;14163;-26.142;27.992;2022-11-20T05:02:50;3.80;;;3.50;;
26478;SDS011;14163;-26.142;27.992;2022-11-20T05:05:19;5.37;;;4.00;;
26478;SDS011;14163;-26.142;27.992;2022-11-20T05:07:48;3.50;;;3.10;;
26478;SDS011;14163;-26.142;27.992;2022-11-20T05:10:17;6.13;;;4.27;;
26478;SDS011;14163;-26.142;27.992;2022-11-20T05:12:46;2.70;;;2.50;;
26478;SDS011;14163;-26.142;27.992;2022-11-20T05:15:17;4.33;;;2.50;;
26478;SDS011;14163;-26.142;27.992;2022-11-20T05:17:49;4.97;;;2.83;;
26478;SDS011;14163;-26.142;27.992;2022-11-20T05:20:18;4.97;;;3.50;;
26478;SDS011;14163;-26.142;27.992;2022-11-20T05:22:48;6.47;;;2.97;;
26478;SDS011;14163;-26.142;27.992;2022-11-20T05:25:17;4.67;;;2.57;;
26478;SDS011;14163;-26.142;27.992;2022-11-20T05:27:46;4.97;;;2.27;;
26478;SDS011;14163;-26.142;27.992;2022-11-20T05:30:17;3.30;;;2.63;;
26478;SDS011;14163;-26.142;27.992;2022-11-20T05:32:46;3.37;;;2.20;;
26478;SDS011;14163;-26.142;27.992;2022-11-20T05:35:15;4.20;;;2.30;;
26478;SDS011;14163;-26.142;27.992;2022-11-20T05:37:44;2.50;;;2.00;;
26478;SDS011;14163;-26.142;27.992;2022-11-20T05:40:14;3.97;;;2.00;;
26478;SDS011;14163;-26.142;27.992;2022-11-20T05:42:43;2.30;;;1.60;;
26478;SDS011;14163;-26.142;27.992;2022-11-20T05:45:12;1.80;;;1.70;;
26478;SDS011;14163;-26.142;27.992;2022-11-20T05:47:43;4.90;;;1.90;;
26478;SDS011;14163;-26.142;27.992;2022-11-20T05:50:12;1.93;;;1.53;;
26478;SDS011;14163;-26.142;27.992;2022-11-20T05:52:41;2.30;;;1.43;;
26478;SDS011;14163;-26.142;27.992;2022-11-20T05:55:11;1.27;;;1.17;;
26478;SDS011;14163;-26.142;27.992;2022-11-20T05:57:40;2.90;;;1.70;;
26478;SDS011;14163;-26.142;27.992;2022-11-20T06:00:09;2.83;;;1.00;;
26478;SDS011;14163;-26.142;27.992;2022-11-20T06:02:39;1.57;;;1.27;;
26478;SDS011;14163;-26.142;27.992;2022-11-20T06:05:10;1.93;;;1.30;;
26478;SDS011;14163;-26.142;27.992;2022-11-20T06:07:39;1.73;;;1.20;;
26478;SDS011;14163;-26.142;27.992;2022-11-20T06:10:09;1.97;;;1.17;;
26478;SDS011;14163;-26.142;27.992;2022-11-20T06:12:38;1.47;;;1.37;;
26478;SDS011;14163;-26.142;27.992;2022-11-20T06:15:08;2.60;;;1.50;;
26478;SDS011;14163;-26.142;27.992;2022-11-20T06:17:37;2.40;;;1.20;;
26478;SDS011;14163;-26.142;27.992;2022-11-20T06:20:07;1.40;;;1.33;;
26478;SDS011;14163;-26.142;27.992;2022-11-20T06:22:38;1.40;;;1.30;;
26478;SDS011;14163;-26.142;27.992;2022-11-20T06:25:08;2.40;;;1.60;;
26478;SDS011;14163;-26.142;27.992;2022-11-20T06:27:37;4.20;;;2.10;;
26478;SDS011;14163;-26.142;27.992;2022-11-20T06:30:07;3.60;;;1.80;;
26478;SDS011;14163;-26.142;27.992;2022-11-20T06:32:36;2.20;;;1.30;;
26478;SDS011;14163;-26.142;27.992;2022-11-20T06:35:06;2.30;;;1.63;;
26478;SDS011;14163;-26.142;27.992;2022-11-20T06:37:37;1.63;;;1.53;;
26478;SDS011;14163;-26.142;27.992;2022-11-20T06:40:07;2.67;;;1.90;;
26478;SDS011;14163;-26.142;27.992;2022-11-20T06:42:37;3.37;;;2.00;;
26478;SDS011;14163;-26.142;27.992;2022-11-20T06:45:07;2.13;;;1.80;;
26478;SDS011;14163;-26.142;27.992;2022-11-20T06:47:36;2.40;;;1.30;;
26478;SDS011;14163;-26.142;27.992;2022-11-20T06:50:06;1.20;;;1.13;;
26478;SDS011;14163;-26.142;27.992;2022-11-20T06:52:37;2.13;;;1.50;;
26478;SDS011;14163;-26.142;27.992;2022-11-20T06:55:07;3.60;;;2.00;;
26478;SDS011;14163;-26.142;27.992;2022-11-20T06:57:36;6.93;;;1.70;;
26478;SDS011;14163;-26.142;27.992;2022-11-20T07:00:06;1.77;;;1.43;;
26478;SDS011;14163;-26.142;27.992;2022-11-20T07:02:35;2.50;;;1.60;;
26478;SDS011;14163;-26.142;27.992;2022-11-20T07:05:05;2.63;;;1.70;;
26478;SDS011;14163;-26.142;27.992;2022-11-20T07:07:34;3.23;;;1.67;;
26478;SDS011;14163;-26.142;27.992;2022-11-20T07:10:05;3.70;;;1.63;;
26478;SDS011;14163;-26.142;27.992;2022-11-20T07:12:35;3.27;;;1.67;;
26478;SDS011;14163;-26.142;27.992;2022-11-20T07:15:05;1.57;;;1.47;;
26478;SDS011;14163;-26.142;27.992;2022-11-20T07:17:34;1.77;;;1.67;;
26478;SDS011;14163;-26.142;27.992;2022-11-20T07:20:04;2.40;;;1.63;;
26478;SDS011;14163;-26.142;27.992;2022-11-20T07:22:33;1.50;;;1.40;;
26478;SDS011;14163;-26.142;27.992;2022-11-20T07:25:05;1.40;;;1.30;;
26478;SDS011;14163;-26.142;27.992;2022-11-20T07:27:34;1.67;;;1.40;;
26478;SDS011;14163;-26.142;27.992;2022-11-20T07:30:04;1.20;;;1.10;;
26478;SDS011;14163;-26.142;27.992;2022-11-20T07:32:34;2.50;;;1.07;;
26478;SDS011;14163;-26.142;27.992;2022-11-20T07:35:03;2.43;;;1.47;;
26478;SDS011;14163;-26.142;27.992;2022-11-20T07:37:34;1.33;;;1.23;;
26478;SDS011;14163;-26.142;27.992;2022-11-20T07:40:05;1.70;;;1.20;;
26478;SDS011;14163;-26.142;27.992;2022-11-20T07:42:35;3.33;;;1.43;;
26478;SDS011;14163;-26.142;27.992;2022-11-20T07:45:04;1.17;;;1.07;;
26478;SDS011;14163;-26.142;27.992;2022-11-20T07:47:37;1.43;;;1.33;;
26478;SDS011;14163;-26.142;27.992;2022-11-20T07:50:06;1.50;;;1.40;;
26478;SDS011;14163;-26.142;27.992;2022-11-20T07:52:36;2.27;;;1.63;;
26478;SDS011;14163;-26.142;27.992;2022-11-20T07:55:08;1.50;;;1.13;;
26478;SDS011;14163;-26.142;27.992;2022-11-20T07:57:37;1.27;;;1.20;;
26478;SDS011;14163;-26.142;27.992;2022-11-20T08:00:08;1.60;;;1.17;;
26478;SDS011;14163;-26.142;27.992;2022-11-20T08:02:38;1.37;;;1.27;;
26478;SDS011;14163;-26.142;27.992;2022-11-20T08:05:08;1.10;;;1.10;;
26478;SDS011;14163;-26.142;27.992;2022-11-20T08:07:37;1.47;;;1.37;;
26478;SDS011;14163;-26.142;27.992;2022-11-20T08:10:10;2.23;;;2.03;;
26478;SDS011;14163;-26.142;27.992;2022-11-20T08:12:43;4.37;;;2.70;;
26478;SDS011;14163;-26.142;27.992;2022-11-20T08:15:29;2.73;;;1.70;;
26478;SDS011;14163;-26.142;27.992;2022-11-20T08:18:00;12.20;;;5.43;;
26478;SDS011;14163;-26.142;27.992;2022-11-20T08:20:30;8.93;;;4.03;;
26478;SDS011;14163;-26.142;27.992;2022-11-20T08:22:59;2.60;;;1.20;;
26478;SDS011;14163;-26.142;27.992;2022-11-20T08:25:31;1.70;;;1.60;;
26478;SDS011;14163;-26.142;27.992;2022-11-20T08:28:01;0.90;;;0.90;;
26478;SDS011;14163;-26.142;27.992;2022-11-20T08:30:31;1.23;;;1.23;;
26478;SDS011;14163;-26.142;27.992;2022-11-20T08:33:02;1.10;;;1.10;;
26478;SDS011;14163;-26.142;27.992;2022-11-20T08:35:33;1.17;;;1.00;;
26478;SDS011;14163;-26.142;27.992;2022-11-20T08:38:03;0.90;;;0.87;;
26478;SDS011;14163;-26.142;27.992;2022-11-20T08:40:35;1.00;;;1.00;;
26478;SDS011;14163;-26.142;27.992;2022-11-20T08:43:04;0.87;;;0.83;;
26478;SDS011;14163;-26.142;27.992;2022-11-20T08:45:33;0.80;;;0.80;;
26478;SDS011;14163;-26.142;27.992;2022-11-20T08:48:02;1.30;;;1.00;;
26478;SDS011;14163;-26.142;27.992;2022-11-20T08:50:32;1.70;;;1.10;;
26478;SDS011;14163;-26.142;27.992;2022-11-20T08:53:04;1.03;;;0.93;;
26478;SDS011;14163;-26.142;27.992;2022-11-20T08:55:35;2.10;;;1.00;;
26478;SDS011;14163;-26.142;27.992;2022-11-20T08:58:05;2.80;;;0.93;;
26478;SDS011;14163;-26.142;27.992;2022-11-20T09:00:34;1.00;;;1.00;;
26478;SDS011;14163;-26.142;27.992;2022-11-20T09:03:03;2.20;;;1.10;;
26478;SDS011;14163;-26.142;27.992;2022-11-20T09:05:32;1.03;;;1.03;;
26478;SDS011;14163;-26.142;27.992;2022-11-20T09:08:02;2.13;;;0.90;;
26478;SDS011;14163;-26.142;27.992;2022-11-20T09:10:31;1.00;;;0.90;;
26478;SDS011;14163;-26.142;27.992;2022-11-20T09:13:02;0.80;;;0.80;;
26478;SDS011;14163;-26.142;27.992;2022-11-20T09:15:31;1.47;;;0.97;;
26478;SDS011;14163;-26.142;27.992;2022-11-20T09:18:02;1.30;;;1.20;;
26478;SDS011;14163;-26.142;27.992;2022-11-20T09:20:31;1.70;;;1.00;;
26478;SDS011;14163;-26.142;27.992;2022-11-20T09:23:01;0.97;;;0.83;;
26478;SDS011;14163;-26.142;27.992;2022-11-20T09:25:30;1.33;;;1.23;;
26478;SDS011;14163;-26.142;27.992;2022-11-20T09:27:59;0.80;;;0.80;;
26478;SDS011;14163;-26.142;27.992;2022-11-20T09:30:30;1.83;;;1.20;;
26478;SDS011;14163;-26.142;27.992;2022-11-20T09:32:59;0.90;;;0.90;;
26478;SDS011;14163;-26.142;27.992;2022-11-20T09:35:28;1.33;;;0.90;;
26478;SDS011;14163;-26.142;27.992;2022-11-20T09:37:58;5.50;;;0.90;;
26478;SDS011;14163;-26.142;27.992;2022-11-20T09:40:31;1.00;;;1.00;;
26478;SDS011;14163;-26.142;27.992;2022-11-20T09:43:06;0.90;;;0.90;;
26478;SDS011;14163;-26.142;27.992;2022-11-20T09:45:45;1.10;;;1.00;;
26478;SDS011;14163;-26.142;27.992;2022-11-20T09:48:36;0.80;;;0.80;;
26478;SDS011;14163;-26.142;27.992;2022-11-20T09:51:30;1.77;;;1.20;;
26478;SDS011;14163;-26.142;27.992;2022-11-20T09:54:10;1.50;;;1.07;;
26478;SDS011;14163;-26.142;27.992;2022-11-20T09:56:44;3.77;;;0.80;;
26478;SDS011;14163;-26.142;27.992;2022-11-20T09:59:26;2.10;;;1.00;;
26478;SDS011;14163;-26.142;27.992;2022-11-20T10:02:01;1.10;;;1.10;;
26478;SDS011;14163;-26.142;27.992;2022-11-20T10:04:41;1.13;;;0.87;;
26478;SDS011;14163;-26.142;27.992;2022-11-20T10:07:16;0.87;;;0.87;;
26478;SDS011;14163;-26.142;27.992;2022-11-20T10:09:50;2.23;;;1.00;;
26478;SDS011;14163;-26.142;27.992;2022-11-20T10:12:23;1.40;;;1.00;;
26478;SDS011;14163;-26.142;27.992;2022-11-20T10:15:04;1.70;;;1.00;;
26478;SDS011;14163;-26.142;27.992;2022-11-20T10:17:49;1.00;;;1.00;;
26478;SDS011;14163;-26.142;27.992;2022-11-20T10:20:28;1.83;;;1.50;;
26478;SDS011;14163;-26.142;27.992;2022-11-20T10:23:13;2.53;;;2.20;;
26478;SDS011;14163;-26.142;27.992;2022-11-20T10:26:00;1.80;;;1.10;;
26478;SDS011;14163;-26.142;27.992;2022-11-20T10:28:42;2.60;;;2.07;;
26478;SDS011;14163;-26.142;27.992;2022-11-20T10:31:26;2.40;;;1.80;;
26478;SDS011;14163;-26.142;27.992;2022-11-20T10:34:00;1.40;;;1.30;;
26478;SDS011;14163;-26.142;27.992;2022-11-20T10:36:34;3.03;;;2.70;;
26478;SDS011;14163;-26.142;27.992;2022-11-20T10:39:06;1.20;;;1.17;;
26478;SDS011;14163;-26.142;27.992;2022-11-20T10:41:44;4.00;;;2.53;;
26478;SDS011;14163;-26.142;27.992;2022-11-20T10:44:17;2.00;;;1.90;;
26478;SDS011;14163;-26.142;27.992;2022-11-20T10:47:03;2.00;;;1.30;;
26478;SDS011;14163;-26.142;27.992;2022-11-20T10:49:33;0.80;;;0.80;;
26478;SDS011;14163;-26.142;27.992;2022-11-20T10:52:04;1.40;;;1.27;;
26478;SDS011;14163;-26.142;27.992;2022-11-20T10:54:42;0.90;;;0.90;;
26478;SDS011;14163;-26.142;27.992;2022-11-20T10:57:19;1.10;;;1.10;;
26478;SDS011;14163;-26.142;27.992;2022-11-20T11:00:02;1.20;;;1.20;;
26478;SDS011;14163;-26.142;27.992;2022-11-20T11:02:38;1.20;;;1.20;;
26478;SDS011;14163;-26.142;27.992;2022-11-20T11:05:16;1.70;;;1.60;;
26478;SDS011;14163;-26.142;27.992;2022-11-20T11:07:53;1.10;;;1.10;;
26478;SDS011;14163;-26.142;27.992;2022-11-20T11:10:24;6.47;;;4.03;;
26478;SDS011;14163;-26.142;27.992;2022-11-20T11:12:59;2.07;;;1.30;;
26478;SDS011;14163;-26.142;27.992;2022-11-20T11:15:29;1.40;;;1.30;;
26478;SDS011;14163;-26.142;27.992;2022-11-20T11:18:07;2.13;;;2.03;;
26478;SDS011;14163;-26.142;27.992;2022-11-20T11:20:37;1.13;;;1.03;;
26478;SDS011;14163;-26.142;27.992;2022-11-20T11:23:23;0.90;;;0.90;;
26478;SDS011;14163;-26.142;27.992;2022-11-20T11:25:59;1.67;;;1.43;;
26478;SDS011;14163;-26.142;27.992;2022-11-20T11:28:29;2.53;;;1.10;;
26478;SDS011;14163;-26.142;27.992;2022-11-20T11:30:59;1.57;;;1.23;;
26478;SDS011;14163;-26.142;27.992;2022-11-20T11:33:30;0.93;;;0.93;;
26478;SDS011;14163;-26.142;27.992;2022-11-20T11:36:02;2.50;;;1.30;;
26478;SDS011;14163;-26.142;27.992;2022-11-20T11:38:43;1.20;;;1.10;;
26478;SDS011;14163;-26.142;27.992;2022-11-20T11:41:14;1.10;;;1.10;;
26478;SDS011;14163;-26.142;27.992;2022-11-20T11:43:49;1.20;;;1.20;;
26478;SDS011;14163;-26.142;27.992;2022-11-20T11:46:39;1.90;;;1.27;;
26478;SDS011;14163;-26.142;27.992;2022-11-20T11:49:19;0.97;;;0.93;;
26478;SDS011;14163;-26.142;27.992;2022-11-20T11:51:56;1.10;;;1.10;;
26478;SDS011;14163;-26.142;27.992;2022-11-20T11:54:35;2.20;;;1.90;;
26478;SDS011;14163;-26.142;27.992;2022-11-20T11:57:11;1.33;;;1.20;;
26478;SDS011;14163;-26.142;27.992;2022-11-20T11:59:49;1.70;;;1.60;;
26478;SDS011;14163;-26.142;27.992;2022-11-20T12:02:29;1.73;;;1.63;;
26478;SDS011;14163;-26.142;27.992;2022-11-20T12:05:08;1.40;;;1.20;;
26478;SDS011;14163;-26.142;27.992;2022-11-20T12:07:45;3.00;;;2.80;;
26478;SDS011;14163;-26.142;27.992;2022-11-20T12:10:20;1.37;;;1.27;;
26478;SDS011;14163;-26.142;27.992;2022-11-20T12:12:52;1.57;;;1.47;;
26478;SDS011;14163;-26.142;27.992;2022-11-20T12:15:28;2.10;;;2.00;;
26478;SDS011;14163;-26.142;27.992;2022-11-20T12:17:58;2.00;;;1.43;;
26478;SDS011;14163;-26.142;27.992;2022-11-20T12:20:32;3.53;;;1.67;;
26478;SDS011;14163;-26.142;27.992;2022-11-20T12:23:09;3.10;;;1.83;;
26478;SDS011;14163;-26.142;27.992;2022-11-20T12:25:44;1.30;;;1.20;;
26478;SDS011;14163;-26.142;27.992;2022-11-20T12:28:19;1.50;;;1.40;;
26478;SDS011;14163;-26.142;27.992;2022-11-20T12:31:10;1.57;;;1.47;;
26478;SDS011;14163;-26.142;27.992;2022-11-20T12:33:54;1.67;;;1.57;;
26478;SDS011;14163;-26.142;27.992;2022-11-20T12:36:35;1.43;;;1.33;;
26478;SDS011;14163;-26.142;27.992;2022-11-20T12:39:14;1.40;;;1.30;;
26478;SDS011;14163;-26.142;27.992;2022-11-20T12:42:05;3.07;;;2.97;;
26478;SDS011;14163;-26.142;27.992;2022-11-20T12:45:17;2.70;;;1.60;;
26478;SDS011;14163;-26.142;27.992;2022-11-20T12:48:13;1.80;;;1.57;;
26478;SDS011;14163;-26.142;27.992;2022-11-20T12:50:57;1.37;;;1.27;;
26478;SDS011;14163;-26.142;27.992;2022-11-20T12:53:43;3.33;;;1.60;;
26478;SDS011;14163;-26.142;27.992;2022-11-20T12:56:24;1.10;;;1.00;;
26478;SDS011;14163;-26.142;27.992;2022-11-20T12:59:07;1.33;;;1.33;;
26478;SDS011;14163;-26.142;27.992;2022-11-20T13:01:49;2.10;;;2.00;;
26478;SDS011;14163;-26.142;27.992;2022-11-20T13:07:23;4.00;;;3.70;;
26478;SDS011;14163;-26.142;27.992;2022-11-20T13:09:56;2.60;;;2.40;;
26478;SDS011;14163;-26.142;27.992;2022-11-20T13:12:29;6.80;;;2.63;;
26478;SDS011;14163;-26.142;27.992;2022-11-20T13:15:02;1.80;;;1.57;;
26478;SDS011;14163;-26.142;27.992;2022-11-20T13:17:45;1.47;;;1.40;;
26478;SDS011;14163;-26.142;27.992;2022-11-20T13:20:19;1.80;;;1.70;;
26478;SDS011;14163;-26.142;27.992;2022-11-20T13:22:50;2.13;;;1.93;;
26478;SDS011;14163;-26.142;27.992;2022-11-20T13:25:25;1.80;;;1.70;;
26478;SDS011;14163;-26.142;27.992;2022-11-20T13:27:55;1.83;;;1.70;;
26478;SDS011;14163;-26.142;27.992;2022-11-20T13:30:26;1.70;;;1.60;;
26478;SDS011;14163;-26.142;27.992;2022-11-20T13:32:56;1.73;;;1.63;;
26478;SDS011;14163;-26.142;27.992;2022-11-20T13:35:29;2.30;;;2.10;;
26478;SDS011;14163;-26.142;27.992;2022-11-20T13:38:01;1.97;;;1.90;;
26478;SDS011;14163;-26.142;27.992;2022-11-20T13:40:35;1.47;;;1.37;;
26478;SDS011;14163;-26.142;27.992;2022-11-20T13:43:11;3.10;;;1.93;;
26478;SDS011;14163;-26.142;27.992;2022-11-20T13:45:57;1.80;;;1.70;;
26478;SDS011;14163;-26.142;27.992;2022-11-20T13:48:29;1.63;;;1.53;;
26478;SDS011;14163;-26.142;27.992;2022-11-20T13:51:02;1.50;;;1.40;;
26478;SDS011;14163;-26.142;27.992;2022-11-20T13:53:47;1.70;;;1.43;;
26478;SDS011;14163;-26.142;27.992;2022-11-20T13:56:39;1.67;;;1.60;;
26478;SDS011;14163;-26.142;27.992;2022-11-20T13:59:23;2.03;;;1.40;;
26478;SDS011;14163;-26.142;27.992;2022-11-20T14:02:02;2.80;;;2.50;;
26478;SDS011;14163;-26.142;27.992;2022-11-20T14:04:38;1.90;;;1.80;;
26478;SDS011;14163;-26.142;27.992;2022-11-20T14:07:11;2.13;;;1.90;;
26478;SDS011;14163;-26.142;27.992;2022-11-20T14:09:49;2.60;;;2.30;;
26478;SDS011;14163;-26.142;27.992;2022-11-20T14:12:23;2.10;;;2.00;;
26478;SDS011;14163;-26.142;27.992;2022-11-20T14:14:55;2.40;;;2.13;;
26478;SDS011;14163;-26.142;27.992;2022-11-20T14:17:29;2.33;;;2.03;;
26478;SDS011;14163;-26.142;27.992;2022-11-20T14:20:00;1.93;;;1.83;;
26478;SDS011;14163;-26.142;27.992;2022-11-20T14:22:32;2.30;;;2.03;;
26478;SDS011;14163;-26.142;27.992;2022-11-20T14:25:02;1.90;;;1.80;;
26478;SDS011;14163;-26.142;27.992;2022-11-20T14:27:35;2.17;;;2.07;;
26478;SDS011;14163;-26.142;27.992;2022-11-20T14:30:11;2.30;;;2.20;;
26478;SDS011;14163;-26.142;27.992;2022-11-20T14:32:43;1.80;;;1.70;;
26478;SDS011;14163;-26.142;27.992;2022-11-20T14:35:14;2.80;;;2.17;;
26478;SDS011;14163;-26.142;27.992;2022-11-20T14:37:49;1.67;;;1.57;;
26478;SDS011;14163;-26.142;27.992;2022-11-20T14:40:23;3.73;;;2.20;;
26478;SDS011;14163;-26.142;27.992;2022-11-20T14:42:56;2.20;;;1.80;;
26478;SDS011;14163;-26.142;27.992;2022-11-20T14:45:26;2.27;;;2.00;;
26478;SDS011;14163;-26.142;27.992;2022-11-20T14:47:56;2.97;;;1.80;;
26478;SDS011;14163;-26.142;27.992;2022-11-20T14:50:27;2.50;;;2.30;;
26478;SDS011;14163;-26.142;27.992;2022-11-20T14:52:57;3.87;;;1.93;;
26478;SDS011;14163;-26.142;27.992;2022-11-20T14:55:28;2.87;;;2.10;;
26478;SDS011;14163;-26.142;27.992;2022-11-20T14:58:01;1.90;;;1.80;;
26478;SDS011;14163;-26.142;27.992;2022-11-20T15:00:32;3.43;;;2.13;;
26478;SDS011;14163;-26.142;27.992;2022-11-20T15:03:02;3.00;;;2.60;;
26478;SDS011;14163;-26.142;27.992;2022-11-20T15:05:44;2.70;;;2.50;;
26478;SDS011;14163;-26.142;27.992;2022-11-20T15:08:15;5.83;;;2.83;;
26478;SDS011;14163;-26.142;27.992;2022-11-20T15:10:47;3.43;;;2.37;;
26478;SDS011;14163;-26.142;27.992;2022-11-20T15:13:19;2.50;;;2.30;;
26478;SDS011;14163;-26.142;27.992;2022-11-20T15:15:54;3.77;;;2.50;;
26478;SDS011;14163;-26.142;27.992;2022-11-20T15:18:26;5.73;;;4.63;;
26478;SDS011;14163;-26.142;27.992;2022-11-20T15:20:57;4.37;;;2.40;;
26478;SDS011;14163;-26.142;27.992;2022-11-20T15:23:29;4.10;;;2.07;;
26478;SDS011;14163;-26.142;27.992;2022-11-20T15:25:58;3.60;;;3.20;;
26478;SDS011;14163;-26.142;27.992;2022-11-20T15:28:30;3.93;;;3.50;;
26478;SDS011;14163;-26.142;27.992;2022-11-20T15:31:01;5.20;;;4.00;;
26478;SDS011;14163;-26.142;27.992;2022-11-20T15:33:31;4.50;;;2.93;;
26478;SDS011;14163;-26.142;27.992;2022-11-20T15:36:01;3.03;;;2.73;;
26478;SDS011;14163;-26.142;27.992;2022-11-20T15:38:30;3.03;;;2.73;;
26478;SDS011;14163;-26.142;27.992;2022-11-20T15:40:59;4.13;;;3.00;;
26478;SDS011;14163;-26.142;27.992;2022-11-20T15:43:30;2.97;;;2.40;;
26478;SDS011;14163;-26.142;27.992;2022-11-20T15:46:00;3.07;;;2.70;;
26478;SDS011;14163;-26.142;27.992;2022-11-20T15:48:34;5.00;;;2.60;;
26478;SDS011;14163;-26.142;27.992;2022-11-20T15:51:06;3.77;;;2.00;;
26478;SDS011;14163;-26.142;27.992;2022-11-20T15:53:42;2.40;;;2.20;;
26478;SDS011;14163;-26.142;27.992;2022-11-20T15:56:12;2.90;;;2.60;;
26478;SDS011;14163;-26.142;27.992;2022-11-20T15:58:43;3.80;;;2.50;;
26478;SDS011;14163;-26.142;27.992;2022-11-20T16:01:12;5.13;;;2.80;;
26478;SDS011;14163;-26.142;27.992;2022-11-20T16:03:43;5.13;;;2.50;;
26478;SDS011;14163;-26.142;27.992;2022-11-20T16:06:12;2.83;;;2.00;;
26478;SDS011;14163;-26.142;27.992;2022-11-20T18:12:41;5.67;;;5.23;;
26478;SDS011;14163;-26.142;27.992;2022-11-20T18:15:10;7.10;;;6.03;;
26478;SDS011;14163;-26.142;27.992;2022-11-20T18:17:39;6.40;;;5.80;;
26478;SDS011;14163;-26.142;27.992;2022-11-20T18:20:08;6.77;;;6.07;;
26478;SDS011;14163;-26.142;27.992;2022-11-20T18:22:39;5.97;;;5.37;;
26478;SDS011;14163;-26.142;27.992;2022-11-20T18:25:08;5.50;;;5.10;;
26478;SDS011;14163;-26.142;27.992;2022-11-20T18:27:38;6.60;;;6.00;;
26478;SDS011;14163;-26.142;27.992;2022-11-20T18:30:10;6.13;;;5.47;;
26478;SDS011;14163;-26.142;27.992;2022-11-20T18:32:40;6.80;;;6.17;;
26478;SDS011;14163;-26.142;27.992;2022-11-20T18:35:09;6.57;;;6.07;;
26478;SDS011;14163;-26.142;27.992;2022-11-20T18:37:38;10.27;;;5.90;;
26478;SDS011;14163;-26.142;27.992;2022-11-20T18:40:08;9.90;;;5.63;;
26478;SDS011;14163;-26.142;27.992;2022-11-20T18:42:38;5.73;;;5.23;;
26478;SDS011;14163;-26.142;27.992;2022-11-20T18:45:26;6.00;;;5.40;;
26478;SDS011;14163;-26.142;27.992;2022-11-20T18:47:55;5.83;;;5.30;;
26478;SDS011;14163;-26.142;27.992;2022-11-20T18:50:24;5.20;;;4.70;;
26478;SDS011;14163;-26.142;27.992;2022-11-20T18:52:53;5.33;;;4.83;;
26478;SDS011;14163;-26.142;27.992;2022-11-20T18:55:22;5.10;;;4.70;;
26478;SDS011;14163;-26.142;27.992;2022-11-20T18:57:53;6.13;;;5.57;;
26478;SDS011;14163;-26.142;27.992;2022-11-20T19:00:22;5.77;;;5.27;;
26478;SDS011;14163;-26.142;27.992;2022-11-20T19:02:52;6.53;;;5.20;;